Oakesdale, Washington
Current Conditions -  °F | °C
As of 8:53 AM on Friday 19 Dec 2014 (Local Time) from KPUW Reporting Station
Light Rain Light Rain  
Wind Chill: 36°   Ceiling: 2600
Heat Index: 42°   Visibility: 6mi
Dew Point: 38°   Wind: 10mph
Humidity: 85%   Direction: 170°S
Pressure: 29.92"   Gusts: NA
Location:  47.13°N, 117.24°W
Report Text: KPUW 191653Z AUTO 17009KT 6SM -RA BR OVC026 06/03 A2992 RMK AO2 SLP144 P0004 T00560033
Loading
Personal Weather Stations






























Interactive Weather Map New forecast layout! Learn more

10-Day Weather Forecast

Advertisements
Track Severe Weather on mobile